Time;durP1;ratioP1;P1;durP2;ratioP2;P2;SDS_P1;SDS_P2;PMS_P1;PMS_P2;Temp;Humidity;BMP_temperature;BMP_pressure;BME280_temperature;BME280_humidity;BME280_pressure;Samples;Min_cycle;Max_cycle;Signal;HPM_P1;HPM_P2
2021/10/01 00:01:55;;;;;;;31.55;20.15;;;;;;;7.13;78.69;101932.20;1725581;82;25798;-77
2021/10/01 00:04:25;;;;;;;31.62;19.75;;;;;;;7.13;78.76;101932.68;1695095;82;26569;-77
2021/10/01 00:06:52;;;;;;;31.35;20.48;;;;;;;7.10;78.84;101944.95;1674338;82;25872;-77
2021/10/01 00:09:20;;;;;;;32.13;21.33;;;;;;;7.08;78.89;101942.39;1673228;82;28152;-77
2021/10/01 00:11:54;;;;;;;31.97;20.88;;;;;;;7.09;78.84;101941.91;1719586;82;26066;-77
2021/10/01 00:14:25;;;;;;;32.80;19.15;;;;;;;7.07;78.84;101936.73;1723649;82;25832;-77
2021/10/01 00:16:53;;;;;;;30.57;21.35;;;;;;;7.07;79.03;101938.54;1655101;82;26421;-77
2021/10/01 00:19:22;;;;;;;31.23;21.35;;;;;;;7.06;78.66;101936.87;1655270;82;26040;-77
2021/10/01 00:21:49;;;;;;;33.63;20.02;;;;;;;7.01;78.59;101935.92;1721015;82;27619;-77
2021/10/01 00:24:17;;;;;;;29.75;19.85;;;;;;;6.97;78.48;101936.66;1724764;82;26572;-77
2021/10/01 00:26:44;;;;;;;29.32;20.25;;;;;;;6.93;78.28;101935.71;1670919;82;26124;-78
2021/10/01 00:29:11;;;;;;;28.47;19.20;;;;;;;6.88;78.39;101937.47;1648973;82;26694;-77
2021/10/01 00:31:39;;;;;;;32.03;19.07;;;;;;;6.84;78.17;101934.67;1723262;82;25794;-77
2021/10/01 00:34:06;;;;;;;27.25;18.40;;;;;;;6.80;78.12;101938.58;1722866;82;27602;-77
2021/10/01 00:36:34;;;;;;;31.68;19.00;;;;;;;6.75;78.35;101927.48;1702471;82;26023;-77
2021/10/01 00:39:03;;;;;;;32.23;19.90;;;;;;;6.76;78.29;101933.63;1653756;82;26563;-77
2021/10/01 00:41:30;;;;;;;26.15;17.73;;;;;;;6.75;78.45;101931.48;1716592;82;25828;-77
2021/10/01 00:43:58;;;;;;;29.50;19.00;;;;;;;6.73;78.55;101926.78;1720229;82;25955;-77
2021/10/01 00:46:25;;;;;;;24.80;17.42;;;;;;;6.73;78.70;101920.60;1670769;82;27656;-77
2021/10/01 00:48:53;;;;;;;28.30;18.37;;;;;;;6.73;78.61;101923.27;1667161;83;25993;-77
2021/10/01 00:51:23;;;;;;;28.05;19.25;;;;;;;6.69;78.41;101923.17;1673830;82;25380;-77
2021/10/01 00:53:52;;;;;;;30.68;19.42;;;;;;;6.66;78.54;101920.75;1724690;82;26537;-77
2021/10/01 00:56:21;;;;;;;32.55;18.75;;;;;;;6.67;78.68;101919.80;1695294;82;26035;-76
2021/10/01 00:58:48;;;;;;;31.05;19.07;;;;;;;6.68;78.85;101919.66;1697771;82;27189;-77
2021/10/01 01:01:15;;;;;;;28.42;19.35;;;;;;;6.67;78.68;101921.94;1692383;82;25861;-77
2021/10/01 01:03:52;;;;;;;28.73;17.45;;;;;;;6.66;78.32;101913.61;1721089;82;26439;-77
2021/10/01 01:06:40;;;;;;;24.60;17.02;;;;;;;6.62;78.05;101920.66;1698490;82;25937;-77
2021/10/01 01:09:33;;;;;;;31.97;21.10;;;;;;;6.58;77.99;101912.58;1720562;82;25794;-77
2021/10/01 01:12:19;;;;;;;32.98;21.48;;;;;;;6.53;77.89;101914.77;1703368;82;28260;-77
2021/10/01 01:15:06;;;;;;;37.17;22.70;;;;;;;6.46;77.98;101910.95;1717069;82;25798;-77
2021/10/01 01:17:55;;;;;;;39.67;23.47;;;;;;;6.39;77.94;101911.09;1682118;82;25875;-77
2021/10/01 01:20:42;;;;;;;34.60;21.57;;;;;;;6.33;78.01;101904.95;1715986;82;25864;-77
2021/10/01 01:23:33;;;;;;;33.40;20.97;;;;;;;6.28;78.09;101904.01;1717891;82;25837;-77
2021/10/01 01:26:18;;;;;;;31.45;19.65;;;;;;;6.24;77.97;101904.73;1717691;82;27645;-77
2021/10/01 01:28:56;;;;;;;32.80;20.75;;;;;;;6.19;78.00;101908.75;1714164;82;26142;-77
2021/10/01 01:31:56;;;;;;;29.87;19.77;;;;;;;6.14;78.02;101913.12;1685550;84;25975;-77
2021/10/01 01:34:37;;;;;;;32.48;20.92;;;;;;;6.11;78.00;101912.06;1703109;81;35490;-77
2021/10/01 01:37:14;;;;;;;34.18;21.02;;;;;;;6.07;78.13;101909.78;1731496;81;25873;-77
2021/10/01 01:39:43;;;;;;;28.77;19.05;;;;;;;6.05;78.25;101915.70;1699141;81;27372;-77
2021/10/01 01:42:11;;;;;;;32.42;19.80;;;;;;;6.03;78.27;101910.48;1683234;81;25921;-77
2021/10/01 01:44:39;;;;;;;33.73;19.12;;;;;;;6.02;78.28;101909.30;1702476;81;25946;-77
2021/10/01 01:47:06;;;;;;;33.38;19.73;;;;;;;5.98;78.09;101918.02;1702120;81;25850;-77
2021/10/01 01:49:35;;;;;;;32.33;19.30;;;;;;;5.95;78.32;101911.61;1707652;81;25825;-77
2021/10/01 01:52:06;;;;;;;29.23;19.27;;;;;;;5.92;78.35;101915.84;1676374;81;27460;-77
2021/10/01 01:54:34;;;;;;;33.90;19.48;;;;;;;5.93;78.52;101917.54;1695706;81;26041;-77
2021/10/01 01:57:03;;;;;;;27.32;18.82;;;;;;;5.94;78.70;101919.72;1688939;81;25860;-76
2021/10/01 01:59:32;;;;;;;29.85;18.52;;;;;;;5.96;78.68;101925.76;1679167;81;26521;-77
2021/10/01 02:02:00;;;;;;;29.87;18.70;;;;;;;5.96;78.94;101919.11;1656166;82;25835;-77
2021/10/01 02:04:29;;;;;;;30.27;19.77;;;;;;;5.97;79.01;101924.30;1679593;83;27561;-77
2021/10/01 02:06:58;;;;;;;31.85;19.30;;;;;;;5.97;78.62;101934.08;1683381;82;26818;-76
2021/10/01 02:09:27;;;;;;;32.05;18.90;;;;;;;5.92;78.52;101933.62;1701821;81;25836;-77
2021/10/01 02:11:54;;;;;;;29.50;19.92;;;;;;;5.90;78.51;101930.25;1665355;83;26648;-76
2021/10/01 02:14:25;;;;;;;27.02;18.40;;;;;;;5.85;78.44;101942.59;1689162;83;25939;-77
2021/10/01 02:16:55;;;;;;;;;;;;;;;5.79;78.17;101947.04;1726745;81;27525;-77
2021/10/01 02:19:24;;;;;;;28.83;17.67;;;;;;;5.73;78.46;101944.84;1684816;83;25845;-77
2021/10/01 02:21:54;;;;;;;28.30;18.30;;;;;;;5.69;78.44;101941.26;1660809;83;25881;-77
2021/10/01 02:24:27;;;;;;;28.75;18.57;;;;;;;5.67;78.35;101939.17;1686806;82;26472;-76
2021/10/01 02:27:11;;;;;;;27.42;18.70;;;;;;;5.65;78.33;101945.95;1696545;82;25805;-77
2021/10/01 02:30:07;;;;;;;26.07;16.90;;;;;;;5.64;78.40;101946.08;1708736;82;28225;-77
2021/10/01 02:32:41;;;;;;;28.92;18.07;;;;;;;5.60;78.26;101940.17;1722932;82;25917;-76
2021/10/01 02:35:09;;;;;;;25.92;17.30;;;;;;;5.58;78.28;101943.92;1695006;82;26555;-77
2021/10/01 02:37:37;;;;;;;29.82;18.17;;;;;;;5.51;78.02;101946.22;1722345;82;25836;-77
2021/10/01 02:40:07;;;;;;;29.77;19.25;;;;;;;5.47;78.10;101949.58;1653210;82;26512;-77
2021/10/01 02:42:34;;;;;;;31.30;19.30;;;;;;;5.45;78.14;101946.70;1718185;82;27624;-76
2021/10/01 02:45:04;;;;;;;29.75;19.27;;;;;;;5.43;78.23;101945.47;1699375;82;25797;-76
2021/10/01 02:47:34;;;;;;;28.73;19.50;;;;;;;5.42;78.22;101943.80;1723184;82;25770;-76
2021/10/01 02:50:10;;;;;;;28.65;18.42;;;;;;;5.39;78.13;101941.38;1668475;82;25913;-77
2021/10/01 02:53:15;;;;;;;30.05;20.37;;;;;;;5.33;77.94;101942.34;1715694;82;26159;-76
2021/10/01 02:55:55;;;;;;;31.77;20.23;;;;;;;5.28;78.13;101945.34;1692864;82;27529;-76
2021/10/01 02:58:41;;;;;;;33.53;20.10;;;;;;;5.25;78.17;101946.94;1716088;82;26000;-76
2021/10/01 03:01:11;;;;;;;30.45;20.12;;;;;;;5.22;78.37;101945.83;1712652;82;25874;-76
2021/10/01 03:03:43;;;;;;;29.37;19.65;;;;;;;5.21;78.45;101944.16;1719360;82;26544;-76
2021/10/01 03:06:11;;;;;;;27.65;21.02;;;;;;;5.18;78.15;101946.19;1695124;82;26532;-76
2021/10/01 03:08:40;;;;;;;31.27;20.05;;;;;;;5.13;78.10;101942.55;1723161;82;28738;-76
2021/10/01 03:11:13;;;;;;;31.45;19.85;;;;;;;5.10;78.24;101945.95;1648412;82;25874;-76
2021/10/01 03:13:45;;;;;;;28.15;19.73;;;;;;;5.05;78.30;101940.13;1694845;82;26002;-76
2021/10/01 03:16:13;;;;;;;30.02;19.42;;;;;;;5.02;78.24;101943.90;1693199;82;25885;-76
2021/10/01 03:18:41;;;;;;;26.37;18.42;;;;;;;5.01;78.44;101947.97;1701519;83;25801;-76
2021/10/01 03:21:09;;;;;;;28.50;19.23;;;;;;;4.99;78.41;101942.80;1697395;82;27474;-76
2021/10/01 03:23:40;;;;;;;30.05;18.02;;;;;;;4.97;78.35;101939.89;1717691;82;25794;-76
2021/10/01 03:26:07;;;;;;;31.10;18.52;;;;;;;4.93;78.33;101938.44;1668060;82;25885;-76
2021/10/01 03:28:37;;;;;;;27.13;17.85;;;;;;;4.91;78.50;101939.89;1722817;82;25856;-76
2021/10/01 03:31:05;;;;;;;27.58;17.48;;;;;;;4.91;78.47;101939.03;1668026;82;26318;-77
2021/10/01 03:33:33;;;;;;;24.70;18.02;;;;;;;4.88;78.52;101941.91;1673527;82;27446;-76
2021/10/01 03:36:00;;;;;;;27.58;18.57;;;;;;;4.89;78.71;101951.58;1719619;82;25959;-76
2021/10/01 03:38:28;;;;;;;26.93;16.95;;;;;;;4.89;78.81;101947.60;1721642;82;25814;-76
2021/10/01 03:40:59;;;;;;;30.02;18.02;;;;;;;4.84;78.75;101940.46;1681332;81;25917;-76
2021/10/01 03:43:27;;;;;;;26.93;17.95;;;;;;;4.80;78.52;101942.98;1682520;82;25919;-76
2021/10/01 03:45:57;;;;;;;27.00;19.23;;;;;;;4.77;78.48;101945.89;1677307;83;27577;-76
2021/10/01 03:48:25;;;;;;;25.70;17.80;;;;;;;4.76;78.76;101947.70;1701008;81;26549;-76
2021/10/01 03:50:54;;;;;;;29.97;18.13;;;;;;;4.73;78.47;101947.91;1660450;83;26042;-76
2021/10/01 03:53:21;;;;;;;26.12;17.32;;;;;;;4.69;78.35;101943.33;1685043;83;25952;-76
2021/10/01 03:55:48;;;;;;;26.77;17.95;;;;;;;4.69;78.31;101942.48;1685473;83;25916;-76
2021/10/01 03:58:16;;;;;;;27.00;17.37;;;;;;;4.67;78.13;101941.28;1710320;83;28223;-76
2021/10/01 04:00:47;;;;;;;28.42;18.95;;;;;;;4.65;78.21;101942.35;1673989;83;26637;-77
2021/10/01 04:03:16;;;;;;;24.55;16.85;;;;;;;4.61;78.12;101937.77;1689057;81;25980;-76
2021/10/01 04:05:45;;;;;;;25.15;16.05;;;;;;;4.58;77.91;101939.31;1697331;81;26492;-76
2021/10/01 04:08:14;;;;;;;24.55;15.60;;;;;;;4.52;77.79;101939.78;1710418;82;26586;-76
2021/10/01 04:10:43;;;;;;;26.10;16.60;;;;;;;4.49;77.68;101948.46;1658613;83;28082;-77
2021/10/01 04:13:10;;;;;;;28.77;16.85;;;;;;;4.45;77.96;101946.50;1685165;82;25956;-76
2021/10/01 04:15:39;;;;;;;28.55;17.98;;;;;;;4.41;77.85;101945.51;1693765;82;25925;-76
2021/10/01 04:18:07;;;;;;;26.52;17.82;;;;;;;4.38;78.15;101945.28;1704522;83;25942;-76
2021/10/01 04:20:36;;;;;;;25.30;16.75;;;;;;;4.40;78.26;101943.83;1640970;84;25686;-76
2021/10/01 04:23:03;;;;;;;25.82;16.55;;;;;;;4.42;78.12;101943.23;1667340;83;27533;-76
2021/10/01 04:25:32;;;;;;;26.23;17.75;;;;;;;4.39;78.01;101940.80;1643091;85;25872;-76
2021/10/01 04:28:00;;;;;;;25.40;16.15;;;;;;;4.37;77.89;101940.07;1656149;83;26578;-76
2021/10/01 04:30:27;;;;;;;30.65;17.32;;;;;;;4.34;77.84;101940.31;1727519;81;25883;-77
2021/10/01 04:33:02;;;;;;;25.85;16.82;;;;;;;4.30;77.80;101939.67;1672753;84;25994;-76
2021/10/01 04:35:28;;;;;;;23.40;15.63;;;;;;;4.28;77.88;101946.91;1677824;82;28216;-76
2021/10/01 04:37:55;;;;;;;24.90;16.93;;;;;;;4.24;77.88;101944.12;1644049;84;26606;-76
2021/10/01 04:40:22;;;;;;;24.10;17.80;;;;;;;4.23;78.07;101943.77;1704717;83;25790;-77
2021/10/01 04:42:49;;;;;;;23.18;15.95;;;;;;;4.21;78.12;101943.03;1677343;84;25790;-76
2021/10/01 04:45:16;;;;;;;24.77;16.55;;;;;;;4.15;78.10;101943.97;1686414;82;25403;-76
2021/10/01 04:47:44;;;;;;;28.07;18.52;;;;;;;4.14;78.13;101947.56;1651577;83;27374;-76
2021/10/01 04:50:11;;;;;;;23.90;16.93;;;;;;;4.14;78.07;101947.56;1711521;82;26417;-77
2021/10/01 04:52:38;;;;;;;31.07;18.55;;;;;;;4.10;78.17;101941.65;1679743;82;26028;-77
2021/10/01 04:55:07;;;;;;;26.80;16.95;;;;;;;4.12;78.38;101946.83;1657518;82;25832;-76
2021/10/01 04:57:34;;;;;;;27.27;17.40;;;;;;;4.15;78.49;101957.23;1666702;82;25808;-77
2021/10/01 05:00:20;;;;;;;27.07;16.10;;;;;;;4.15;78.31;101954.07;1716229;82;27515;-76
2021/10/01 05:03:05;;;;;;;25.45;16.02;;;;;;;4.10;78.22;101957.56;1679749;82;25953;-76
2021/10/01 05:05:34;;;;;;;28.40;16.45;;;;;;;4.08;78.30;101954.17;1710564;82;25865;-76
2021/10/01 05:08:09;;;;;;;24.07;16.05;;;;;;;4.07;78.23;101954.27;1668260;82;25973;-76
2021/10/01 05:10:56;;;;;;;25.35;16.57;;;;;;;4.01;78.20;101956.89;1681875;82;25621;-76
2021/10/01 05:13:41;;;;;;;24.60;16.05;;;;;;;3.98;78.34;101959.75;1697466;82;27491;-76
2021/10/01 05:16:27;;;;;;;32.50;17.57;;;;;;;3.99;78.58;101953.98;1697722;82;25801;-75
2021/10/01 05:19:12;;;;;;;29.90;16.73;;;;;;;4.03;78.91;101952.33;1672060;82;25857;-76
2021/10/01 05:21:58;;;;;;;28.90;16.87;;;;;;;4.08;79.25;101959.48;1721563;82;26543;-76
2021/10/01 05:24:25;;;;;;;28.10;17.25;;;;;;;4.14;79.15;101964.80;1696016;82;25980;-76
2021/10/01 05:26:52;;;;;;;26.90;18.30;;;;;;;4.16;79.32;101962.88;1691439;82;28353;-77
2021/10/01 05:29:19;;;;;;;27.62;18.77;;;;;;;4.16;79.35;101956.25;1671202;82;25890;-76
2021/10/01 05:31:46;;;;;;;31.30;17.67;;;;;;;4.15;79.55;101954.58;1716159;82;25853;-77
2021/10/01 05:34:13;;;;;;;32.17;19.35;;;;;;;4.18;79.80;101953.00;1666200;82;25912;-77
2021/10/01 05:36:40;;;;;;;29.45;19.45;;;;;;;4.23;79.91;101956.17;1690703;82;25776;-77
2021/10/01 05:39:07;;;;;;;36.33;22.42;;;;;;;4.28;80.16;101960.64;1676802;83;28209;-77
2021/10/01 05:41:34;;;;;;;35.75;22.50;;;;;;;4.33;80.28;101962.02;1715588;82;25836;-76
2021/10/01 05:56:21;;;;;;;38.20;25.70;;;;;;;5.48;79.49;101953.94;1784634;79;25623;-77
2021/10/01 05:58:59;;;;;;;36.73;24.72;;;;;;;5.37;79.81;101953.08;1619782;87;26103;-77
2021/10/01 06:01:27;;;;;;;40.23;26.90;;;;;;;5.32;80.16;101956.60;1674866;81;27693;-76
2021/10/01 06:03:55;;;;;;;59.73;35.50;;;;;;;5.30;80.55;101953.22;1715343;81;26000;-77
2021/10/01 06:06:22;;;;;;;87.65;46.45;;;;;;;5.29;80.74;101959.48;1721259;82;25841;-77
2021/10/01 06:08:49;;;;;;;100.65;51.53;;;;;;;5.29;81.75;101958.16;1651469;82;25876;-76
2021/10/01 06:11:16;;;;;;;107.12;52.85;;;;;;;5.29;82.17;101961.66;1675662;82;25834;-76
2021/10/01 06:13:43;;;;;;;88.35;48.58;;;;;;;5.32;82.49;101964.57;1723154;81;27441;-77
2021/10/01 06:16:10;;;;;;;84.25;46.98;;;;;;;5.37;82.85;101965.04;1727989;81;25875;-76
2021/10/01 06:18:37;;;;;;;69.55;44.90;;;;;;;5.42;83.18;101962.88;1652951;82;26264;-77
2021/10/01 06:21:05;;;;;;;57.03;39.08;;;;;;;5.48;83.44;101963.24;1651617;83;26021;-77
2021/10/01 06:23:35;;;;;;;54.55;35.75;;;;;;;5.55;83.85;101964.94;1728196;82;25871;-76
2021/10/01 06:26:04;;;;;;;44.70;30.27;;;;;;;5.62;84.45;101951.53;1695263;83;28224;-77
2021/10/01 06:28:32;;;;;;;39.88;26.80;;;;;;;5.72;84.90;101956.47;1674418;82;25890;-77
2021/10/01 06:31:02;;;;;;;39.27;26.33;;;;;;;5.84;85.50;101958.16;1726859;82;25801;-77
2021/10/01 06:33:30;;;;;;;41.53;26.40;;;;;;;5.97;85.94;101964.66;1723180;82;26666;-77
2021/10/01 06:35:59;;;;;;;40.45;27.25;;;;;;;6.11;86.18;101965.74;1721802;81;25972;-77
2021/10/01 06:38:28;;;;;;;40.38;25.68;;;;;;;6.24;86.79;101967.77;1675305;82;28288;-77
2021/10/01 06:40:55;;;;;;;41.45;26.20;;;;;;;6.36;86.86;101964.08;1719134;82;25838;-77
2021/10/01 06:43:22;;;;;;;40.88;26.15;;;;;;;6.50;87.17;101968.28;1700059;82;25881;-76
2021/10/01 06:45:52;;;;;;;40.70;26.68;;;;;;;6.61;87.32;101961.55;1720669;82;26341;-76
2021/10/01 08:18:17;;;;;;;29.98;17.95;;;;;;;9.64;89.74;101969.13;1718040;82;27616;-77
2021/10/01 08:21:05;;;;;;;30.65;15.00;;;;;;;11.49;85.58;101956.13;1721596;82;25725;-78
2021/10/01 08:23:32;;;;;;;21.60;13.43;;;;;;;11.60;85.48;101951.83;1716783;82;25742;-78
2021/10/01 08:25:59;;;;;;;21.25;13.45;;;;;;;11.70;85.13;101949.06;1670817;82;27818;-78
2021/10/01 08:28:26;;;;;;;20.77;12.82;;;;;;;11.80;85.63;101944.41;1707163;82;25754;-78
2021/10/01 08:31:07;;;;;;;;;;;;;;;11.90;84.93;101945.10;1721313;82;25822;-78
2021/10/01 08:33:34;;;;;;;18.52;11.50;;;;;;;11.97;84.35;101947.48;1677921;82;25861;-78
2021/10/01 08:36:01;;;;;;;17.98;11.75;;;;;;;12.05;84.23;101947.50;1636376;82;25817;-79
2021/10/01 08:38:28;;;;;;;20.00;11.48;;;;;;;12.12;84.00;101947.20;1658394;84;27413;-78
2021/10/01 08:40:56;;;;;;;21.48;11.28;;;;;;;12.20;83.57;101942.68;1718440;82;25807;-79
2021/10/01 08:43:24;;;;;;;13.05;9.58;;;;;;;12.28;83.30;101938.66;1686328;82;25883;-78
2021/10/01 08:45:53;;;;;;;17.60;9.33;;;;;;;12.39;83.12;101943.72;1695364;83;26571;-78
2021/10/01 08:48:20;;;;;;;18.07;11.50;;;;;;;12.52;82.93;101941.89;1691617;82;25885;-79
2021/10/01 08:50:47;;;;;;;22.87;13.20;;;;;;;12.62;83.51;101942.55;1722437;82;27546;-78
2021/10/01 08:53:15;;;;;;;14.33;10.40;;;;;;;12.74;83.39;101935.86;1718998;82;26617;-78
2021/10/01 08:55:46;;;;;;;21.97;11.43;;;;;;;12.87;83.47;101938.84;1754157;80;25928;-78
2021/10/01 08:58:10;;;;;;;20.77;10.45;;;;;;;13.01;83.02;101934.64;1709946;82;25953;-78
2021/10/01 09:00:37;;;;;;;15.98;8.95;;;;;;;13.14;82.27;101933.65;1733540;81;26671;-78
2021/10/01 09:03:04;;;;;;;32.03;12.50;;;;;;;13.24;81.53;101934.83;1686686;81;28192;-78
2021/10/01 09:05:32;;;;;;;24.67;10.45;;;;;;;13.33;81.30;101939.16;1741089;81;25807;-78
2021/10/01 09:08:11;;;;;;;13.30;7.03;;;;;;;13.45;80.52;101938.61;1695068;81;25809;-78
2021/10/01 09:10:38;;;;;;;11.33;6.40;;;;;;;13.56;80.26;101936.89;1736904;82;25897;-78
2021/10/01 09:13:10;;;;;;;18.65;8.40;;;;;;;13.70;79.37;101929.45;1696217;82;25882;-78
2021/10/01 09:15:42;;;;;;;35.90;11.83;;;;;;;13.79;78.93;101928.38;1683731;82;28113;-79
2021/10/01 09:18:09;;;;;;;33.58;12.58;;;;;;;13.87;78.58;101928.86;1727145;82;25806;-78
2021/10/01 09:20:36;;;;;;;19.85;8.68;;;;;;;13.96;78.77;101923.78;1750205;81;26600;-78
2021/10/01 09:23:18;;;;;;;21.70;9.50;;;;;;;14.04;78.32;101924.22;1679858;83;25863;-78
2021/10/01 09:25:45;;;;;;;20.72;9.88;;;;;;;14.11;77.65;101923.36;1677828;83;25995;-78
2021/10/01 09:28:12;;;;;;;11.05;6.47;;;;;;;14.21;77.41;101917.72;1696640;82;28298;-78
2021/10/01 09:30:49;;;;;;;10.78;4.92;;;;;;;14.28;76.71;101920.89;1719251;82;25745;-78
2021/10/01 09:33:20;;;;;;;11.60;4.50;;;;;;;14.38;76.64;101919.32;1675218;82;25832;-78
2021/10/01 09:35:48;;;;;;;8.05;5.33;;;;;;;14.46;75.63;101923.30;1698328;82;26573;-79
2021/10/01 09:38:20;;;;;;;10.55;5.40;;;;;;;14.52;75.48;101928.00;1681257;83;25964;-79
2021/10/01 09:41:12;;;;;;;11.50;4.45;;;;;;;14.57;75.10;101926.42;1732807;82;28257;-79
2021/10/01 09:43:39;;;;;;;6.58;4.40;;;;;;;14.63;73.87;101931.09;1724777;81;25992;-79
2021/10/01 09:46:09;;;;;;;8.65;4.03;;;;;;;14.66;73.88;101928.05;1652315;82;25901;-78
2021/10/01 09:48:38;;;;;;;;;;;;;;;14.72;74.14;101929.67;1695833;82;25891;-79
2021/10/01 09:51:17;;;;;;;19.23;5.00;;;;;;;14.78;72.99;101925.73;1680932;83;26322;-78
2021/10/01 09:53:51;;;;;;;15.30;5.62;;;;;;;14.77;72.94;101924.08;1733055;81;27377;-78
2021/10/01 09:56:30;;;;;;;8.20;4.60;;;;;;;14.84;72.24;101929.05;1670360;83;25828;-78
2021/10/01 09:59:14;;;;;;;17.00;5.25;;;;;;;14.88;72.10;101918.75;1661401;84;25817;-78
2021/10/01 10:02:11;;;;;;;8.65;3.67;;;;;;;14.95;72.42;101919.17;1674287;83;25801;-78
2021/10/01 10:04:45;;;;;;;14.23;5.45;;;;;;;15.07;72.18;101929.87;1631584;85;26593;-79
2021/10/01 10:07:19;;;;;;;8.43;3.35;;;;;;;15.02;71.31;101922.82;1646383;83;27525;-79
2021/10/01 10:10:07;;;;;;;7.03;3.67;;;;;;;15.04;70.82;101923.48;1685636;82;25722;-78
2021/10/01 10:12:42;;;;;;;9.20;4.10;;;;;;;15.10;71.38;101915.14;1719613;82;25961;-79
2021/10/01 10:15:16;;;;;;;16.05;3.70;;;;;;;15.21;71.39;101917.39;1717349;82;25990;-79
2021/10/01 10:17:52;;;;;;;14.63;5.00;;;;;;;15.23;70.74;101925.64;1685226;82;26937;-78
2021/10/01 10:20:20;;;;;;;9.90;3.92;;;;;;;15.19;70.62;101923.48;1680603;82;27538;-78
2021/10/01 10:22:47;;;;;;;7.75;3.70;;;;;;;15.16;70.64;101921.17;1686708;84;25850;-79
2021/10/01 10:25:14;;;;;;;20.20;7.65;;;;;;;15.13;70.64;101918.33;1731762;81;26026;-78
2021/10/01 10:27:41;;;;;;;12.18;4.47;;;;;;;15.14;70.03;101911.89;1658139;82;25968;-79
2021/10/01 10:30:10;;;;;;;7.50;3.72;;;;;;;15.24;70.38;101912.98;1675010;81;25899;-78
2021/10/01 10:32:37;;;;;;;6.33;3.30;;;;;;;15.34;69.27;101914.39;1732111;81;26985;-78
2021/10/01 10:35:07;;;;;;;12.55;4.33;;;;;;;15.42;69.38;101912.94;1672806;82;26025;-79
2021/10/01 10:37:53;;;;;;;8.43;2.87;;;;;;;15.48;68.77;101903.30;1647929;82;26535;-79
2021/10/01 10:40:20;;;;;;;7.12;3.00;;;;;;;15.57;68.87;101901.34;1677966;82;25855;-79
2021/10/01 10:42:50;;;;;;;6.45;2.30;;;;;;;15.66;67.72;101893.44;1714429;82;26033;-79
2021/10/01 10:45:23;;;;;;;4.58;1.77;;;;;;;15.74;66.84;101887.95;1716136;81;27515;-79
2021/10/01 10:47:59;;;;;;;3.95;1.37;;;;;;;15.85;66.51;101890.98;1640004;82;25949;-79
2021/10/01 10:50:36;;;;;;;3.90;1.40;;;;;;;15.93;66.12;101881.41;1678352;83;25369;-79
2021/10/01 10:53:15;;;;;;;7.78;2.12;;;;;;;15.90;65.08;101885.02;1678472;84;26174;-79
2021/10/01 10:55:50;;;;;;;3.92;1.55;;;;;;;15.83;64.67;101880.03;1704232;83;25855;-79
2021/10/01 10:58:32;;;;;;;3.25;1.62;;;;;;;15.77;64.50;101880.80;1683758;84;27572;-79
2021/10/01 11:01:11;;;;;;;3.95;1.70;;;;;;;15.70;64.90;101878.02;1668475;83;25820;-78
2021/10/01 11:03:39;;;;;;;5.28;1.57;;;;;;;15.69;64.89;101870.95;1684425;83;25845;-79
2021/10/01 11:06:13;;;;;;;7.72;1.70;;;;;;;15.77;65.28;101866.78;1684168;82;26011;-80
2021/10/01 11:08:51;;;;;;;6.03;1.80;;;;;;;15.88;64.78;101858.70;1655459;83;26543;-81
2021/10/01 11:11:38;;;;;;;5.78;2.20;;;;;;;16.02;64.85;101863.20;1670064;82;27269;-80
2021/10/01 11:14:23;;;;;;;6.90;2.12;;;;;;;16.14;64.21;101856.28;1693383;83;25853;-79
2021/10/01 11:17:01;;;;;;;4.08;2.08;;;;;;;16.28;63.75;101864.84;1643004;83;26284;-80
2021/10/01 11:19:44;;;;;;;2.92;1.60;;;;;;;16.42;62.81;101857.70;1679331;81;25827;-79
2021/10/01 11:22:42;;;;;;;5.50;2.42;;;;;;;16.47;63.04;101860.13;1647996;84;25817;-80
2021/10/01 11:25:17;;;;;;;5.40;2.87;;;;;;;16.54;63.55;101853.45;1682987;83;27461;-80
2021/10/01 11:27:50;;;;;;;8.75;3.83;;;;;;;16.62;63.32;101856.86;1681980;83;25881;-80
2021/10/01 11:30:18;;;;;;;6.72;3.00;;;;;;;16.58;62.82;101854.23;1686799;84;25991;-80
2021/10/01 11:32:45;;;;;;;9.70;3.25;;;;;;;16.48;63.16;101852.34;1638471;84;25442;-80
2021/10/01 11:35:12;;;;;;;6.35;2.70;;;;;;;16.43;63.36;101856.14;1688747;83;26019;-80
2021/10/01 11:37:48;;;;;;;8.03;2.83;;;;;;;16.39;63.83;101853.51;1668265;84;27528;-80
2021/10/01 11:40:28;;;;;;;3.77;2.30;;;;;;;16.35;63.75;101848.68;1675816;83;26480;-80
2021/10/01 11:42:59;;;;;;;4.37;2.92;;;;;;;16.30;63.25;101842.49;1719964;82;26873;-81
2021/10/01 11:45:32;;;;;;;7.28;2.55;;;;;;;16.23;63.15;101838.38;1683067;83;25822;-80
2021/10/01 11:48:04;;;;;;;45.55;10.40;;;;;;;16.20;63.32;101839.29;1705475;82;25808;-80
2021/10/01 11:50:44;;;;;;;50.33;15.05;;;;;;;16.20;63.28;101832.53;1678401;83;27478;-80
2021/10/01 11:53:26;;;;;;;5.78;2.47;;;;;;;16.21;63.09;101835.03;1666621;82;25955;-80
2021/10/01 11:55:59;;;;;;;8.58;2.70;;;;;;;16.25;62.36;101832.80;1687643;83;25826;-79
2021/10/01 11:58:29;;;;;;;7.72;3.02;;;;;;;16.29;63.03;101830.02;1718835;82;25823;-80
2021/10/01 12:01:10;;;;;;;6.78;2.25;;;;;;;16.31;62.49;101830.66;1713001;82;25822;-80
2021/10/01 12:03:50;;;;;;;3.70;2.42;;;;;;;16.31;62.05;101824.41;1682190;82;28033;-79
2021/10/01 12:06:30;;;;;;;6.10;3.37;;;;;;;16.29;62.55;101820.56;1727503;81;25891;-79
2021/10/01 12:09:01;;;;;;;6.95;3.77;;;;;;;16.34;62.69;101818.62;1698823;82;25846;-79
2021/10/01 12:11:36;;;;;;;5.90;3.50;;;;;;;16.44;62.93;101816.42;1683393;82;25867;-79
2021/10/01 12:14:19;;;;;;;7.78;3.62;;;;;;;16.56;62.39;101814.36;1707687;82;25913;-80
2021/10/01 12:17:05;;;;;;;8.25;3.42;;;;;;;16.68;62.40;101810.08;1742480;81;27623;-80
2021/10/01 12:19:33;;;;;;;6.37;3.20;;;;;;;16.79;61.66;101810.88;1729298;82;26562;-79
2021/10/01 12:22:15;;;;;;;4.72;2.90;;;;;;;16.81;61.89;101807.46;1677402;82;25796;-80
2021/10/01 12:24:51;;;;;;;6.78;3.70;;;;;;;16.85;62.08;101804.67;1710360;82;25752;-79
2021/10/01 12:27:39;;;;;;;7.35;3.00;;;;;;;16.84;61.19;101805.73;1669400;82;25789;-79
2021/10/01 12:30:05;;;;;;;7.78;3.65;;;;;;;16.76;61.09;101797.77;1689044;83;27935;-79
2021/10/01 12:32:33;;;;;;;13.13;3.37;;;;;;;16.74;61.39;101792.23;1675341;81;25784;-78
2021/10/01 12:35:02;;;;;;;8.08;4.37;;;;;;;16.71;61.15;101794.81;1742949;81;25785;-79
2021/10/01 12:37:37;;;;;;;8.13;3.40;;;;;;;16.67;61.22;101790.83;1707209;83;25887;-78
2021/10/01 12:40:05;;;;;;;7.37;3.35;;;;;;;16.63;59.75;101788.72;1719949;82;25875;-79
2021/10/01 12:42:39;;;;;;;8.20;3.50;;;;;;;16.59;60.63;101784.23;1664680;82;27058;-79
2021/10/01 12:45:16;;;;;;;8.63;3.58;;;;;;;16.61;60.57;101780.80;1682226;82;25679;-79
2021/10/01 12:47:47;;;;;;;6.70;4.08;;;;;;;16.70;61.08;101776.89;1717830;82;25886;-80
2021/10/01 12:50:31;;;;;;;10.30;4.37;;;;;;;16.73;61.52;101773.80;1720343;82;25795;-80
2021/10/01 12:53:04;;;;;;;7.40;4.03;;;;;;;16.69;61.10;101770.34;1678040;82;26578;-80
2021/10/01 12:55:33;;;;;;;6.85;3.50;;;;;;;16.60;60.84;101762.89;1672281;83;27584;-79
2021/10/01 12:58:01;;;;;;;7.80;3.50;;;;;;;16.54;60.78;101764.19;1707688;82;26119;-79
2021/10/01 13:00:32;;;;;;;6.55;3.00;;;;;;;16.48;60.47;101760.39;1661090;82;25879;-80
2021/10/01 13:03:09;;;;;;;5.65;3.33;;;;;;;16.52;60.81;101754.94;1707940;83;26490;-79
2021/10/01 13:05:43;;;;;;;6.42;3.10;;;;;;;16.59;61.14;101754.47;1716755;81;25845;-79
2021/10/01 13:08:17;;;;;;;6.17;2.98;;;;;;;16.71;61.37;101743.41;1735563;81;27498;-80
2021/10/01 13:10:55;;;;;;;6.90;3.22;;;;;;;16.82;60.36;101733.38;1717784;82;26557;-80
2021/10/01 13:13:27;;;;;;;5.10;2.95;;;;;;;16.98;58.96;101739.49;1684629;82;26600;-80
2021/10/01 13:15:59;;;;;;;6.78;2.95;;;;;;;17.15;59.55;101736.22;1757613;80;25850;-79
2021/10/01 13:18:36;;;;;;;4.42;2.25;;;;;;;17.29;58.83;101736.60;1742709;80;26539;-80
2021/10/01 13:21:20;;;;;;;7.10;2.95;;;;;;;17.41;58.66;101737.67;1717241;83;28203;-80
2021/10/01 13:24:03;;;;;;;4.40;1.40;;;;;;;17.53;56.99;101737.96;1713884;82;26026;-79
2021/10/01 13:26:35;;;;;;;3.95;1.77;;;;;;;17.54;56.20;101740.97;1664663;83;25912;-79